Time;durP1;ratioP1;P1;durP2;ratioP2;P2;SDS_P1;SDS_P2;PMS_P1;PMS_P2;Temp;Humidity;BMP_temperature;BMP_pressure;BME280_temperature;BME280_humidity;BME280_pressure;Samples;Min_cycle;Max_cycle;Signal;HPM_P1;HPM_P2
2022/11/04 00:02:02;;;;;;;24.40;12.78;;;;;;;3.60;96.61;98187.62;1834243;76;21108;-67
2022/11/04 00:04:29;;;;;;;22.10;13.25;;;;;;;3.56;96.75;98187.28;1821371;76;20942;-67
2022/11/04 00:06:56;;;;;;;20.27;13.78;;;;;;;3.53;96.99;98190.42;1821380;77;20991;-67
2022/11/04 00:09:27;;;;;;;22.77;13.48;;;;;;;3.52;97.07;98184.84;1831741;77;20881;-67
2022/11/04 00:14:41;;;;;;;21.40;12.20;;;;;;;3.51;97.04;98175.82;1824707;77;20931;-67
2022/11/04 00:17:18;;;;;;;23.60;12.37;;;;;;;3.46;96.93;98177.86;1828970;77;21420;-67
2022/11/04 00:33:52;;;;;;;20.37;10.95;;;;;;;3.31;96.62;98165.69;1841443;77;21298;-67
2022/11/04 00:36:19;;;;;;;16.87;11.20;;;;;;;3.27;96.64;98162.70;1832094;77;21045;-67
2022/11/04 00:38:46;;;;;;;18.07;11.55;;;;;;;3.22;96.63;98169.25;1824880;77;21307;-67
2022/11/04 00:41:26;;;;;;;17.95;10.95;;;;;;;3.20;96.78;98161.27;1834818;77;21411;-67
2022/11/04 00:43:59;;;;;;;20.85;11.43;;;;;;;3.16;96.74;98160.12;1827464;77;21625;-67
2022/11/04 00:46:30;;;;;;;20.60;10.60;;;;;;;3.12;96.77;98161.12;1822501;77;21678;-67
2022/11/04 00:48:56;;;;;;;18.02;10.78;;;;;;;3.07;96.84;98162.36;1822253;77;20868;-67
2022/11/04 00:51:24;;;;;;;17.55;10.13;;;;;;;3.06;97.10;98154.67;1836357;77;20829;-67
2022/11/04 00:53:51;;;;;;;18.48;10.55;;;;;;;3.07;97.06;98157.58;1821018;77;20915;-67
2022/11/04 00:56:18;;;;;;;16.57;10.72;;;;;;;3.09;97.21;98154.98;1822119;77;20963;-67
2022/11/04 00:58:45;;;;;;;17.00;10.28;;;;;;;3.09;97.11;98148.87;1832922;76;21053;-67
2022/11/04 01:01:16;;;;;;;16.82;10.00;;;;;;;3.07;97.03;98141.70;1808146;77;21008;-67
2022/11/04 01:03:47;;;;;;;15.30;9.53;;;;;;;3.04;97.02;98136.91;1820849;77;20964;-67
2022/11/04 01:06:14;;;;;;;14.83;9.60;;;;;;;2.97;97.01;98138.90;1835706;77;21424;-67
2022/11/04 01:08:41;;;;;;;17.50;9.45;;;;;;;2.92;97.01;98136.16;1842745;77;20991;-67
2022/11/04 01:11:10;;;;;;;15.85;8.73;;;;;;;2.88;97.09;98129.20;1820371;77;21211;-67
2022/11/04 01:13:38;;;;;;;13.68;9.15;;;;;;;2.87;97.15;98132.09;1834875;77;20875;-66
2022/11/04 01:16:07;;;;;;;14.10;8.55;;;;;;;2.88;97.64;98131.04;1832678;77;20912;-66
2022/11/04 01:18:34;;;;;;;14.45;8.95;;;;;;;2.91;97.78;98130.57;1834637;77;21430;-66
2022/11/04 01:21:06;;;;;;;15.75;9.93;;;;;;;2.95;97.71;98134.34;1815434;77;20934;-67
2022/11/04 01:23:33;;;;;;;19.07;9.95;;;;;;;2.92;97.53;98126.90;1819316;77;21111;-66
2022/11/04 01:26:00;;;;;;;20.60;9.63;;;;;;;2.88;97.33;98117.81;1832221;77;20946;-67
2022/11/04 01:28:27;;;;;;;17.23;9.30;;;;;;;2.84;97.29;98120.14;1830911;77;20935;-66
2022/11/04 01:30:54;;;;;;;17.70;9.50;;;;;;;2.83;97.38;98117.75;1818414;77;21411;-67
2022/11/04 01:33:20;;;;;;;17.80;9.33;;;;;;;2.83;97.46;98113.23;1839311;77;20887;-68
2022/11/04 01:35:48;;;;;;;16.55;9.83;;;;;;;2.82;97.25;98108.19;1830060;77;21246;-66
2022/11/04 01:38:15;;;;;;;17.05;9.15;;;;;;;2.76;97.17;98111.25;1830854;77;21054;-66
2022/11/04 01:40:43;;;;;;;13.13;9.45;;;;;;;2.73;97.36;98104.59;1839625;77;21515;-67
2022/11/04 01:43:18;;;;;;;12.80;8.20;;;;;;;2.78;97.86;98108.39;1826865;77;20940;-67
2022/11/04 01:45:58;;;;;;;13.22;8.85;;;;;;;2.82;98.05;98105.55;1817325;76;20944;-66
2022/11/04 01:48:29;;;;;;;14.80;8.60;;;;;;;2.85;98.28;98100.56;1834384;77;21100;-67
2022/11/04 01:50:55;;;;;;;16.25;8.73;;;;;;;2.85;98.22;98100.56;1840669;77;20837;-67
2022/11/04 01:53:30;;;;;;;12.63;8.30;;;;;;;2.84;98.06;98104.27;1814510;77;21396;-66
2022/11/04 01:56:04;;;;;;;14.83;8.88;;;;;;;2.79;97.96;98098.89;1827551;77;20991;-67
2022/11/04 01:58:31;;;;;;;14.15;8.28;;;;;;;2.81;98.29;98102.60;1819580;77;20910;-67
2022/11/04 02:00:58;;;;;;;14.43;9.13;;;;;;;2.81;98.29;98093.34;1850989;76;21231;-68
2022/11/04 02:03:34;;;;;;;16.57;9.43;;;;;;;2.81;98.55;98089.38;1824616;76;21321;-67
2022/11/04 02:06:01;;;;;;;12.80;8.15;;;;;;;2.80;98.59;98092.56;1826252;77;20881;-67
2022/11/04 02:08:29;;;;;;;20.80;10.28;;;;;;;2.78;98.50;98086.17;1841769;77;20932;-66
2022/11/04 02:10:58;;;;;;;18.90;10.93;;;;;;;2.82;98.95;98093.64;1838713;77;20998;-67
2022/11/04 02:13:26;;;;;;;18.75;11.25;;;;;;;2.88;99.99;98084.23;1832527;77;21855;-67
2022/11/04 02:16:12;;;;;;;16.67;10.13;;;;;;;2.99;100.00;98087.86;1835973;76;20876;-66
2022/11/04 02:19:05;;;;;;;15.35;9.68;;;;;;;3.06;100.00;98083.22;1844384;76;20907;-67
2022/11/04 02:21:44;;;;;;;16.37;8.68;;;;;;;3.07;100.00;98079.52;1828475;77;20845;-67
2022/11/04 02:24:34;;;;;;;12.53;8.85;;;;;;;3.01;99.94;98077.32;1830703;77;21427;-67
2022/11/04 02:27:43;;;;;;;13.95;8.48;;;;;;;2.95;99.60;98072.16;1838733;77;21474;-67
2022/11/04 02:30:16;;;;;;;18.35;10.43;;;;;;;2.92;99.27;98072.66;1828554;77;20864;-67
2022/11/04 02:33:00;;;;;;;15.60;9.93;;;;;;;2.86;99.19;98073.59;1815665;78;20918;-68
2022/11/04 02:36:11;;;;;;;16.75;10.65;;;;;;;2.87;99.75;98077.86;1816653;78;20911;-68
2022/11/04 02:38:47;;;;;;;13.05;9.43;;;;;;;2.87;100.00;98060.67;1834167;77;20932;-67
2022/11/04 02:41:42;;;;;;;17.35;9.98;;;;;;;2.88;100.00;98060.93;1827405;77;21428;-67
2022/11/04 02:44:38;;;;;;;16.13;11.33;;;;;;;2.88;100.00;98056.96;1819376;76;20963;-67
2022/11/04 02:47:11;;;;;;;17.32;11.83;;;;;;;2.90;100.00;98052.26;1841423;77;21007;-67
2022/11/04 02:49:54;;;;;;;18.17;12.18;;;;;;;2.98;100.00;98047.88;1838615;76;21426;-67
2022/11/04 02:52:43;;;;;;;20.72;13.35;;;;;;;3.03;100.00;98055.38;1775904;79;21034;-66
2022/11/04 02:55:17;;;;;;;20.75;10.65;;;;;;;3.09;100.00;98049.63;1793465;78;22069;-67
2022/11/04 02:57:45;;;;;;;18.77;11.25;;;;;;;3.10;100.00;98042.80;1810861;78;20905;-67
2022/11/04 03:00:13;;;;;;;21.87;12.13;;;;;;;3.09;100.00;98035.08;1816798;78;20833;-67
2022/11/04 03:02:47;;;;;;;21.95;12.95;;;;;;;3.11;100.00;98035.67;1817817;78;21394;-67
2022/11/04 03:05:17;;;;;;;20.12;12.55;;;;;;;3.15;100.00;98034.13;1820114;78;20853;-67
2022/11/04 03:07:43;;;;;;;18.50;13.10;;;;;;;3.20;100.00;98028.38;1813764;78;21082;-68
2022/11/04 03:10:28;;;;;;;19.77;12.68;;;;;;;3.23;100.00;98026.58;1815972;77;20881;-67
2022/11/04 03:13:14;;;;;;;20.92;11.57;;;;;;;3.26;100.00;98022.64;1814848;76;20884;-67
2022/11/04 03:15:50;;;;;;;16.82;10.60;;;;;;;3.28;100.00;98017.39;1833897;77;20960;-67
2022/11/04 03:18:58;;;;;;;17.57;11.48;;;;;;;3.31;100.00;98010.81;1826173;77;20883;-67
2022/11/04 03:21:24;;;;;;;20.20;11.80;;;;;;;3.33;100.00;98007.39;1843982;76;21104;-67
2022/11/04 03:23:51;;;;;;;19.85;12.60;;;;;;;3.34;100.00;97999.20;1828413;77;20868;-66
2022/11/04 03:26:29;;;;;;;18.92;12.07;;;;;;;3.33;100.00;97995.48;1817680;77;20955;-66
2022/11/04 03:29:32;;;;;;;15.23;10.28;;;;;;;3.31;100.00;97985.66;1824340;76;21486;-67
2022/11/04 03:32:17;;;;;;;16.77;10.45;;;;;;;3.29;100.00;97987.75;1759569;80;20916;-67
2022/11/04 03:34:44;;;;;;;16.65;11.22;;;;;;;3.27;100.00;97984.00;1807604;78;21228;-67
2022/11/04 03:37:10;;;;;;;15.15;10.63;;;;;;;3.27;100.00;97980.58;1803903;78;20901;-67
2022/11/04 03:39:39;;;;;;;16.30;10.98;;;;;;;3.26;100.00;97973.16;1797117;78;20954;-67
2022/11/04 03:42:18;;;;;;;17.07;11.00;;;;;;;3.24;100.00;97977.09;1808772;78;21498;-67
2022/11/04 03:44:37;;;;;;;16.57;11.20;;;;;;;3.21;100.00;97966.98;1813521;78;21003;-66
2022/11/04 03:47:04;;;;;;;18.17;10.25;;;;;;;3.21;100.00;97968.30;1808657;77;21114;-67
2022/11/04 03:49:32;;;;;;;15.68;10.32;;;;;;;3.20;100.00;97976.76;1823708;78;21527;-67
2022/11/04 03:54:39;;;;;;;15.83;11.68;;;;;;;3.16;100.00;97965.58;1811514;78;20929;-66
2022/11/04 03:57:17;;;;;;;16.42;10.85;;;;;;;3.19;100.00;97963.78;1803549;78;20977;-67
2022/11/04 04:00:01;;;;;;;16.45;11.22;;;;;;;3.19;100.00;97972.53;1769289;78;21188;-66
2022/11/04 04:02:50;;;;;;;15.93;10.53;;;;;;;3.16;100.00;97965.58;1816439;78;20918;-66
2022/11/04 04:05:37;;;;;;;16.57;10.48;;;;;;;3.14;100.00;97967.16;1813063;78;21091;-67
2022/11/04 04:08:40;;;;;;;16.93;11.50;;;;;;;3.13;100.00;97966.09;1813162;78;21005;-67
2022/11/04 04:11:31;;;;;;;17.77;11.78;;;;;;;3.14;100.00;97969.80;1810211;78;21007;-67
2022/11/04 04:14:09;;;;;;;18.77;11.70;;;;;;;3.14;100.00;97978.26;1812926;77;21226;-66
2022/11/04 04:16:42;;;;;;;19.42;12.50;;;;;;;3.10;100.00;97981.12;1811533;77;21005;-67
2022/11/04 04:19:13;;;;;;;18.05;11.75;;;;;;;3.06;100.00;97983.44;1789830;78;20922;-68
2022/11/04 04:21:51;;;;;;;20.17;11.78;;;;;;;3.04;100.00;97976.27;1802523;78;21426;-68
2022/11/04 04:29:50;;;;;;;24.50;13.93;;;;;;;2.95;100.00;97976.39;1814139;77;21083;-68
2022/11/04 04:32:17;;;;;;;20.88;13.30;;;;;;;2.93;100.00;97973.19;1813304;78;21039;-68
2022/11/04 04:34:44;;;;;;;18.67;12.30;;;;;;;2.93;100.00;97975.03;1806684;78;20941;-68
2022/11/04 04:37:22;;;;;;;18.82;12.70;;;;;;;2.94;100.00;97977.97;1807179;78;21486;-68
2022/11/04 04:45:35;;;;;;;20.32;13.18;;;;;;;2.89;100.00;97975.23;1790021;78;21002;-66
2022/11/04 04:48:01;;;;;;;21.85;13.80;;;;;;;2.89;100.00;97973.92;1802641;78;20985;-66
2022/11/04 04:50:33;;;;;;;20.10;12.70;;;;;;;2.87;100.00;97973.36;1819427;78;21380;-68
2022/11/04 04:52:59;;;;;;;18.45;11.43;;;;;;;2.86;100.00;97974.39;1823548;77;21269;-68
2022/11/04 04:55:25;;;;;;;24.65;13.40;;;;;;;2.86;100.00;97978.36;1813240;78;21008;-68
2022/11/04 04:57:52;;;;;;;20.08;14.07;;;;;;;2.85;100.00;97976.77;1819538;78;21008;-69
2022/11/04 05:00:20;;;;;;;30.10;15.78;;;;;;;2.83;100.00;97978.86;1813358;78;21030;-68
2022/11/04 05:02:48;;;;;;;23.42;14.70;;;;;;;2.80;100.00;97970.08;1812346;78;20980;-67
2022/11/04 05:05:14;;;;;;;18.92;12.28;;;;;;;2.81;100.00;97974.31;1823312;78;21507;-67
2022/11/04 05:07:41;;;;;;;21.62;12.47;;;;;;;2.80;100.00;97971.40;1818052;78;20916;-67
2022/11/04 05:10:09;;;;;;;17.95;12.15;;;;;;;2.78;100.00;97971.11;1795034;78;20982;-67
2022/11/04 05:15:23;;;;;;;26.00;16.57;;;;;;;2.80;100.00;97973.53;1808905;78;21639;-67
2022/11/04 05:17:58;;;;;;;24.92;19.48;;;;;;;2.76;100.00;97975.84;1789717;78;22175;-66
2022/11/04 05:20:25;;;;;;;26.42;21.77;;;;;;;2.70;100.00;97978.14;1808315;78;20874;-64
2022/11/04 05:22:53;;;;;;;17.80;13.95;;;;;;;2.68;100.00;97981.55;1817968;78;20870;-67
2022/11/04 05:25:20;;;;;;;23.02;12.25;;;;;;;2.67;100.00;97976.48;1803036;78;21432;-65
2022/11/04 05:27:47;;;;;;;15.98;11.25;;;;;;;2.66;100.00;97986.25;1790765;77;21024;-66
2022/11/04 05:30:14;;;;;;;25.08;18.52;;;;;;;2.66;100.00;97988.11;1804453;78;21232;-66
2022/11/04 05:32:41;;;;;;;20.37;14.07;;;;;;;2.63;100.00;97980.66;1819470;78;21053;-65
2022/11/04 05:35:08;;;;;;;17.12;12.78;;;;;;;2.63;100.00;97981.45;1788709;78;21120;-66
2022/11/04 05:37:35;;;;;;;18.42;12.15;;;;;;;2.63;100.00;97986.75;1789653;78;20966;-65
2022/11/04 05:40:02;;;;;;;16.15;11.10;;;;;;;2.61;100.00;97995.45;1802893;78;21072;-67
2022/11/04 05:42:30;;;;;;;46.58;31.10;;;;;;;2.61;100.00;97991.99;1825550;78;21619;-68
2022/11/04 05:44:57;;;;;;;128.45;101.20;;;;;;;2.65;100.00;97991.27;1823800;78;20976;-67
2022/11/04 05:47:24;;;;;;;48.98;39.73;;;;;;;2.68;100.00;97997.41;1793988;77;21355;-67
2022/11/04 05:49:51;;;;;;;46.18;36.73;;;;;;;2.69;100.00;97995.55;1819673;78;20932;-67
2022/11/04 05:52:18;;;;;;;32.98;26.48;;;;;;;2.67;100.00;97991.83;1810102;77;21034;-66
2022/11/04 05:54:45;;;;;;;31.68;24.20;;;;;;;2.66;100.00;97996.83;1803916;78;21191;-69
2022/11/04 05:57:12;;;;;;;15.60;12.10;;;;;;;2.67;100.00;97993.66;1825418;77;21277;-67
2022/11/04 05:59:40;;;;;;;13.10;9.95;;;;;;;2.66;100.00;98001.34;1801139;77;20918;-67
2022/11/04 06:02:06;;;;;;;24.40;20.70;;;;;;;2.67;100.00;98002.41;1813593;78;20936;-66
2022/11/04 06:04:34;;;;;;;42.78;34.90;;;;;;;2.68;100.00;97997.92;1814441;77;20868;-66
2022/11/04 06:07:01;;;;;;;27.25;22.17;;;;;;;2.69;100.00;98004.80;1796056;78;21241;-66
2022/11/04 06:09:38;;;;;;;18.52;14.15;;;;;;;2.75;100.00;98002.55;1796045;77;21021;-69
2022/11/04 06:12:13;;;;;;;15.05;10.80;;;;;;;2.81;100.00;97998.12;1803736;78;20926;-66
2022/11/04 06:14:42;;;;;;;15.95;11.03;;;;;;;2.87;100.00;97999.81;1823748;78;20968;-67
2022/11/04 06:17:15;;;;;;;15.68;11.55;;;;;;;2.95;100.00;97998.08;1810037;78;21498;-68
2022/11/04 06:19:44;;;;;;;10.72;7.92;;;;;;;2.99;100.00;98000.55;1825484;77;21380;-66
2022/11/04 06:22:16;;;;;;;15.05;9.93;;;;;;;3.04;100.00;98000.62;1823417;77;20891;-67
2022/11/04 06:24:43;;;;;;;10.72;8.83;;;;;;;3.06;100.00;98003.28;1845571;77;21282;-65
2022/11/04 06:27:10;;;;;;;13.50;8.53;;;;;;;3.12;100.00;98006.30;1836529;77;21061;-67
2022/11/04 06:29:40;;;;;;;12.70;8.23;;;;;;;3.15;100.00;98011.12;1828978;77;20997;-69
2022/11/04 06:32:11;;;;;;;11.12;8.50;;;;;;;3.22;100.00;98017.56;1816882;77;21275;-68
2022/11/04 06:34:39;;;;;;;14.45;9.20;;;;;;;3.25;100.00;98021.06;1842812;77;20982;-67
2022/11/04 06:37:10;;;;;;;12.50;9.45;;;;;;;3.26;100.00;98022.13;1811670;77;20881;-66
2022/11/04 06:39:38;;;;;;;11.60;8.35;;;;;;;3.33;100.00;98024.59;1819161;77;20982;-65
2022/11/04 06:42:05;;;;;;;10.18;8.38;;;;;;;3.37;100.00;98021.73;1788334;78;20947;-65
2022/11/04 06:44:35;;;;;;;13.48;8.15;;;;;;;3.38;100.00;98016.73;1798973;78;21867;-69
2022/11/04 06:47:02;;;;;;;14.18;8.35;;;;;;;3.44;100.00;98014.42;1786463;79;20998;-68
2022/11/04 06:49:29;;;;;;;11.97;7.47;;;;;;;3.49;100.00;98011.85;1794433;78;21125;-67
2022/11/04 06:51:57;;;;;;;17.30;12.98;;;;;;;3.50;100.00;98012.14;1790586;79;21455;-67
2022/11/04 06:54:24;;;;;;;12.78;10.03;;;;;;;3.53;100.00;98009.02;1788960;78;21081;-69
2022/11/04 06:56:52;;;;;;;15.48;9.40;;;;;;;3.61;100.00;98003.28;1767053;79;21243;-68
2022/11/04 06:59:20;;;;;;;12.82;8.45;;;;;;;3.70;100.00;98000.48;1795443;78;20968;-65
2022/11/04 07:01:49;;;;;;;15.05;10.48;;;;;;;3.81;100.00;97998.25;1804063;78;20939;-66
2022/11/04 07:04:16;;;;;;;25.50;8.28;;;;;;;3.99;100.00;97993.95;1799972;78;20978;-61
2022/11/04 07:06:44;;;;;;;14.80;9.55;;;;;;;4.12;100.00;97989.58;1834186;77;20970;-64
2022/11/04 07:09:14;;;;;;;19.25;8.48;;;;;;;4.27;100.00;97992.12;1806924;77;21261;-65
2022/11/04 07:11:42;;;;;;;18.40;8.53;;;;;;;4.38;100.00;97991.97;1819608;77;21343;-64
2022/11/04 07:14:09;;;;;;;12.33;8.13;;;;;;;4.51;100.00;97994.75;1837319;77;21067;-64
2022/11/04 07:16:36;;;;;;;11.28;7.75;;;;;;;4.62;100.00;97997.77;1834950;76;21104;-64
2022/11/04 07:19:06;;;;;;;12.95;8.70;;;;;;;4.71;99.96;97993.62;1777962;79;20967;-66
2022/11/04 07:21:33;;;;;;;11.00;8.23;;;;;;;4.74;99.75;97989.13;1810002;77;21093;-66
2022/11/04 07:24:02;;;;;;;14.83;8.03;;;;;;;4.80;99.66;97984.15;1814205;77;21431;-67
2022/11/04 07:26:29;;;;;;;8.95;7.50;;;;;;;4.89;99.53;97985.80;1815165;77;21058;-66
2022/11/04 07:29:00;;;;;;;11.10;7.78;;;;;;;4.98;99.67;97991.72;1814297;77;20927;-68
2022/11/04 07:31:32;;;;;;;16.85;8.65;;;;;;;5.13;99.61;97989.70;1816593;77;20965;-69
2022/11/04 07:34:03;;;;;;;13.28;8.35;;;;;;;5.29;99.27;97994.87;1817372;77;21113;-65
2022/11/04 07:36:30;;;;;;;8.45;7.40;;;;;;;5.45;98.86;97983.27;1813904;77;21016;-65
2022/11/04 07:39:05;;;;;;;9.90;7.50;;;;;;;5.54;98.07;97987.03;1810961;77;21039;-61
2022/11/04 07:41:38;;;;;;;11.12;7.62;;;;;;;5.65;97.66;97985.25;1811962;77;21093;-67
2022/11/04 07:44:10;;;;;;;9.83;8.23;;;;;;;5.72;97.06;97985.00;1825666;77;21022;-72
2022/11/04 07:46:44;;;;;;;11.73;7.58;;;;;;;5.80;96.93;97981.83;1823523;77;21098;-67
2022/11/04 07:49:12;;;;;;;9.45;6.60;;;;;;;5.89;96.79;97977.12;1822282;77;21008;-62
2022/11/04 07:51:40;;;;;;;8.43;6.58;;;;;;;5.99;96.27;97981.68;1784432;79;21510;-65
2022/11/04 07:54:10;;;;;;;11.25;7.72;;;;;;;6.03;95.31;97969.48;1826006;77;21053;-66
2022/11/04 07:56:38;;;;;;;12.03;7.10;;;;;;;6.01;94.84;97968.39;1821819;77;21050;-66
2022/11/04 07:59:06;;;;;;;11.50;9.08;;;;;;;6.01;94.67;97961.75;1818278;78;21252;-64
2022/11/04 08:01:33;;;;;;;11.50;8.30;;;;;;;6.05;94.45;97968.13;1816587;77;21044;-65
2022/11/04 08:04:08;;;;;;;11.15;6.80;;;;;;;6.05;93.96;97959.37;1820459;77;20924;-61
2022/11/04 08:06:43;;;;;;;8.53;7.28;;;;;;;6.05;94.00;97963.37;1831734;77;21062;-66
2022/11/04 08:09:17;;;;;;;9.88;7.30;;;;;;;6.06;93.97;97959.11;1824517;77;21399;-65
2022/11/04 08:11:47;;;;;;;;;;;;;;;6.11;93.91;97957.80;1835181;77;39932;-61
2022/11/04 08:14:21;;;;;;;9.43;7.90;;;;;;;6.14;93.97;97955.15;1832833;77;20220;-65
2022/11/04 08:16:58;;;;;;;10.65;6.80;;;;;;;6.20;93.57;97958.08;1837412;77;21248;-67
2022/11/04 08:19:28;;;;;;;7.83;6.60;;;;;;;6.29;93.61;97957.05;1843840;77;21546;-65
2022/11/04 08:22:09;;;;;;;9.85;7.03;;;;;;;6.34;93.18;97959.17;1813283;77;20951;-71
2022/11/04 08:24:34;;;;;;;11.33;7.60;;;;;;;6.38;93.18;97949.62;1799817;78;21757;-66
2022/11/04 08:27:01;;;;;;;10.30;6.67;;;;;;;6.42;93.34;97953.34;1788521;78;21025;-64
2022/11/04 08:29:29;;;;;;;9.60;6.20;;;;;;;6.52;93.30;97945.91;1811896;77;21046;-65
2022/11/04 08:31:57;;;;;;;12.47;6.70;;;;;;;6.62;93.50;97941.37;1812808;77;21491;-67
2022/11/04 08:34:25;;;;;;;11.53;7.28;;;;;;;6.78;93.17;97936.31;1813293;77;21106;-66
2022/11/04 08:36:56;;;;;;;12.30;7.05;;;;;;;6.93;92.94;97941.36;1822210;77;22571;-69
2022/11/04 08:39:23;;;;;;;11.88;7.50;;;;;;;7.08;92.82;97928.04;1823880;77;20982;-67
2022/11/04 08:41:53;;;;;;;12.18;7.45;;;;;;;7.21;92.27;97928.80;1770602;79;20996;-64
2022/11/04 08:44:21;;;;;;;14.13;7.42;;;;;;;7.33;92.16;97919.98;1782340;80;21029;-65
2022/11/04 08:46:48;;;;;;;11.45;7.30;;;;;;;7.47;91.87;97921.01;1799887;78;21079;-64
2022/11/04 08:49:17;;;;;;;10.03;7.35;;;;;;;7.58;91.73;97916.70;1809155;76;21243;-68
2022/11/04 08:51:55;;;;;;;15.68;7.50;;;;;;;7.73;91.30;97918.52;1793755;78;21017;-61
2022/11/04 08:54:20;;;;;;;13.30;8.30;;;;;;;7.82;90.52;97910.20;1805284;78;21594;-67
2022/11/04 08:56:51;;;;;;;9.35;7.70;;;;;;;7.84;90.23;97901.42;1796699;78;21593;-69
2022/11/04 08:59:21;;;;;;;9.88;7.60;;;;;;;7.88;90.05;97895.79;1781498;79;21058;-67
2022/11/04 09:01:51;;;;;;;10.78;6.47;;;;;;;7.94;90.33;97893.34;1781644;78;21186;-72
2022/11/04 09:04:20;;;;;;;11.20;7.37;;;;;;;8.05;89.77;97886.09;1803913;78;21098;-69
2022/11/04 09:06:55;;;;;;;11.03;7.58;;;;;;;8.06;89.89;97892.48;1797159;78;20987;-70
2022/11/04 09:09:24;;;;;;;10.88;7.78;;;;;;;8.10;89.70;97888.17;1806795;78;21090;-68
2022/11/04 09:11:58;;;;;;;10.55;6.70;;;;;;;8.16;89.66;97880.42;1798576;78;21435;-67
2022/11/04 09:14:26;;;;;;;10.65;6.30;;;;;;;8.21;89.71;97884.39;1819814;77;21973;-70
2022/11/04 09:16:57;;;;;;;12.07;6.78;;;;;;;8.29;90.03;97876.34;1823523;77;20908;-64
2022/11/04 09:19:25;;;;;;;13.38;7.35;;;;;;;8.35;89.64;97871.77;1817968;77;20939;-68
2022/11/04 09:21:58;;;;;;;13.70;6.85;;;;;;;8.41;89.60;97878.12;1813883;77;21107;-66
2022/11/04 09:24:31;;;;;;;13.13;7.30;;;;;;;8.49;89.81;97879.41;1818607;77;21107;-63
2022/11/04 09:27:04;;;;;;;13.75;8.23;;;;;;;8.65;89.98;97876.86;1812759;77;21483;-63
2022/11/04 09:29:32;;;;;;;22.13;7.08;;;;;;;8.81;89.56;97864.97;1811946;77;20921;-67
2022/11/04 09:32:00;;;;;;;12.55;6.90;;;;;;;8.93;88.73;97862.72;1808423;78;21096;-63
2022/11/04 09:34:28;;;;;;;10.58;6.92;;;;;;;8.99;88.15;97856.26;1776627;78;20952;-64
2022/11/04 09:36:58;;;;;;;10.65;7.00;;;;;;;9.07;87.95;97859.63;1832462;77;21044;-66
2022/11/04 09:39:28;;;;;;;10.40;7.10;;;;;;;9.21;87.48;97856.54;1827645;77;21278;-64
2022/11/04 09:42:17;;;;;;;10.88;7.33;;;;;;;9.32;87.21;97854.03;1823864;77;21023;-66
2022/11/04 09:44:55;;;;;;;10.43;7.53;;;;;;;9.47;86.76;97849.02;1816384;77;21549;-60
2022/11/04 09:52:40;;;;;;;10.03;6.35;;;;;;;9.90;84.24;97839.09;1814887;77;21112;-62
2022/11/04 09:55:18;;;;;;;;;;;;;;;9.98;82.32;97839.80;1828207;78;20980;-64
2022/11/04 09:57:53;;;;;;;12.75;6.47;;;;;;;10.03;81.08;97836.48;1829066;77;20179;-63
2022/11/04 10:00:20;;;;;;;16.48;7.35;;;;;;;10.08;80.46;97828.95;1817111;77;20942;-63
2022/11/04 10:03:20;;;;;;;11.63;6.95;;;;;;;10.13;79.79;97832.36;1824590;77;21119;-63
2022/11/04 10:06:10;;;;;;;11.93;6.40;;;;;;;10.20;79.83;97831.98;1786218;77;21225;-62
2022/11/04 10:09:12;;;;;;;11.08;6.50;;;;;;;10.27;78.84;97829.73;1817120;77;21497;-61
2022/11/04 10:12:03;;;;;;;15.83;9.10;;;;;;;10.28;78.11;97832.14;1824710;77;21500;-59
2022/11/04 10:15:16;;;;;;;19.05;8.33;;;;;;;10.24;77.73;97835.69;1825110;77;22219;-62
2022/11/04 10:18:15;;;;;;;14.58;6.78;;;;;;;10.22;78.38;97831.18;1834826;77;21514;-62
2022/11/04 10:21:12;;;;;;;14.40;6.87;;;;;;;10.26;78.21;97841.55;1833073;77;21241;-61
2022/11/04 10:24:05;;;;;;;10.78;6.78;;;;;;;10.26;77.69;97822.81;1779385;80;20997;-66
2022/11/04 10:26:53;;;;;;;17.10;7.53;;;;;;;10.22;77.83;97824.48;1759067;80;21032;-57
2022/11/04 10:29:29;;;;;;;13.90;7.05;;;;;;;10.20;77.68;97818.06;1807084;78;21497;-60
2022/11/04 10:31:57;;;;;;;17.27;7.62;;;;;;;10.20;77.67;97811.38;1811584;78;21074;-70
2022/11/04 10:34:35;;;;;;;13.58;6.83;;;;;;;10.20;77.57;97811.91;1817594;77;21102;-60
2022/11/04 10:37:03;;;;;;;17.12;6.72;;;;;;;10.21;77.38;97802.81;1837004;77;20895;-61
2022/11/04 10:39:35;;;;;;;16.48;7.72;;;;;;;10.24;77.22;97807.59;1825130;77;21520;-63
2022/11/04 10:42:03;;;;;;;15.63;7.25;;;;;;;10.27;77.39;97798.41;1827734;77;21053;-61
2022/11/04 10:44:33;;;;;;;10.63;6.97;;;;;;;10.33;77.36;97796.45;1758544;80;20972;-61
2022/11/04 10:47:55;;;;;;;16.00;9.40;;;;;;;10.38;77.47;97796.38;1783458;78;21031;-62
2022/11/04 10:50:30;;;;;;;17.70;9.15;;;;;;;10.43;77.40;97786.92;1828602;77;21480;-59
2022/11/04 10:53:13;;;;;;;17.62;8.28;;;;;;;10.43;76.49;97785.59;1839080;77;20927;-59
2022/11/04 10:55:58;;;;;;;14.18;8.35;;;;;;;10.44;76.70;97790.37;1812796;77;21134;-65
2022/11/04 10:58:29;;;;;;;10.78;7.47;;;;;;;10.50;76.61;97790.02;1813443;77;21059;-62
2022/11/04 11:00:56;;;;;;;14.18;6.78;;;;;;;10.57;76.39;97775.70;1810835;77;21280;-59
2022/11/04 11:03:32;;;;;;;12.85;6.70;;;;;;;10.63;76.11;97767.81;1822808;78;21469;-56
2022/11/04 11:06:29;;;;;;;13.78;6.90;;;;;;;10.68;75.40;97761.56;1819674;77;20967;-59
2022/11/04 11:09:00;;;;;;;12.53;6.33;;;;;;;10.73;74.92;97757.46;1814920;77;21039;-60
2022/11/04 11:11:46;;;;;;;10.70;5.78;;;;;;;10.77;73.78;97752.55;1831102;77;21501;-61
2022/11/04 11:14:20;;;;;;;12.82;6.55;;;;;;;10.78;73.04;97758.17;1817262;77;20897;-59
2022/11/04 11:16:49;;;;;;;10.20;6.12;;;;;;;10.81;72.86;97759.47;1807958;77;21921;-62
2022/11/04 11:19:31;;;;;;;14.00;6.78;;;;;;;10.84;72.22;97762.33;1835227;77;21008;-60
2022/11/04 11:22:10;;;;;;;11.68;7.33;;;;;;;10.87;72.32;97764.42;1822784;76;20911;-57
2022/11/04 11:24:47;;;;;;;16.10;7.65;;;;;;;10.90;71.56;97758.45;1797808;78;21065;-62
2022/11/04 11:27:21;;;;;;;14.80;7.50;;;;;;;10.92;71.38;97750.94;1822103;77;21101;-63
2022/11/04 11:29:43;;;;;;;19.25;12.07;;;;;;;10.95;71.02;97747.64;1821283;77;21061;-61
2022/11/04 11:32:24;;;;;;;15.03;9.00;;;;;;;10.96;70.69;97740.39;1798720;78;20916;-61
2022/11/04 11:34:51;;;;;;;21.27;10.60;;;;;;;10.96;71.14;97747.89;1815164;77;21515;-59
2022/11/04 11:37:22;;;;;;;18.65;10.08;;;;;;;10.98;71.28;97732.84;1827225;77;21072;-61
2022/11/04 11:39:49;;;;;;;19.17;9.85;;;;;;;10.99;71.07;97748.65;1820874;77;21557;-62
2022/11/04 11:42:16;;;;;;;15.88;7.58;;;;;;;10.98;71.07;97739.01;1818032;77;21002;-63
2022/11/04 11:44:52;;;;;;;12.65;6.62;;;;;;;10.99;71.07;97736.59;1818080;78;21106;-61
2022/11/04 11:47:27;;;;;;;14.73;7.60;;;;;;;11.03;71.33;97735.97;1779590;79;21015;-61
2022/11/04 11:50:17;;;;;;;14.05;5.85;;;;;;;11.10;71.03;97726.98;1837792;77;21507;-61
2022/11/04 11:52:52;;;;;;;14.03;6.05;;;;;;;11.16;70.44;97724.46;1766514;80;21845;-58
2022/11/04 11:55:26;;;;;;;13.18;5.70;;;;;;;11.24;70.32;97721.05;1818239;77;20892;-59
2022/11/04 11:58:04;;;;;;;12.75;6.58;;;;;;;11.30;70.11;97703.78;1786979;78;21324;-59
2022/11/04 12:00:37;;;;;;;12.68;8.13;;;;;;;11.34;69.50;97697.52;1806669;78;21071;-60
2022/11/04 12:03:36;;;;;;;12.07;7.90;;;;;;;11.41;69.19;97693.07;1785525;78;21115;-62
2022/11/04 12:06:48;;;;;;;15.70;8.28;;;;;;;11.50;68.26;97685.89;1795535;77;21895;-61
2022/11/04 12:09:30;;;;;;;19.65;8.60;;;;;;;11.54;67.81;97678.84;1828008;77;21042;-61
2022/11/04 12:12:28;;;;;;;18.67;7.37;;;;;;;11.57;67.91;97671.52;1830913;77;21089;-60
2022/11/04 12:15:31;;;;;;;15.58;5.65;;;;;;;11.62;68.28;97668.71;1833385;77;20968;-61
2022/11/04 12:18:32;;;;;;;8.03;5.05;;;;;;;11.66;67.20;97669.68;1831934;77;20914;-58
2022/11/04 12:21:11;;;;;;;12.28;5.22;;;;;;;11.63;66.99;97664.95;1824462;77;21199;-60
2022/11/04 12:24:21;;;;;;;19.70;6.60;;;;;;;11.57;67.19;97655.41;1821946;77;20912;-60
2022/11/04 12:27:11;;;;;;;10.70;5.78;;;;;;;11.49;67.68;97654.82;1831351;77;21094;-61
2022/11/04 12:30:13;;;;;;;12.28;5.42;;;;;;;11.41;67.86;97651.50;1825733;77;21079;-69
2022/11/04 12:32:49;;;;;;;15.40;6.33;;;;;;;11.41;68.09;97647.48;1818527;77;21391;-60
2022/11/04 12:35:26;;;;;;;;;;;;;;;11.41;67.38;97640.78;1805600;77;21157;-62
2022/11/04 12:38:26;;;;;;;13.65;5.40;;;;;;;11.39;67.09;97642.44;1815620;77;20479;-60